Time;durP1;ratioP1;P1;durP2;ratioP2;P2;SDS_P1;SDS_P2;PMS_P1;PMS_P2;Temp;Humidity;BMP_temperature;BMP_pressure;BME280_temperature;BME280_humidity;BME280_pressure;Samples;Min_cycle;Max_cycle;Signal;HPM_P1;HPM_P2
2022/07/25 00:02:25;;;;;;;1.73;1.60;;;13.00;1.00;;;;;;8317677;28;20186;-68
2022/07/25 00:06:26;;;;;;;1.70;1.60;;;12.90;1.00;;;;;;8316083;28;20216;-68
2022/07/25 00:10:27;;;;;;;2.33;1.57;;;12.90;1.00;;;;;;8314861;28;20186;-67
2022/07/25 00:14:27;;;;;;;2.73;1.80;;;12.80;1.00;;;;;;8347354;28;20205;-67
2022/07/25 00:18:28;;;;;;;3.27;2.00;;;12.70;1.00;;;;;;8309324;28;20285;-69
2022/07/25 00:22:29;;;;;;;2.30;1.60;;;12.60;1.00;;;;;;8333750;28;20225;-70
2022/07/25 00:26:30;;;;;;;2.77;2.07;;;12.60;1.00;;;;;;8312968;28;20657;-70
2022/07/25 00:30:31;;;;;;;3.37;2.07;;;12.60;1.00;;;;;;8316725;28;20191;-66
2022/07/25 00:34:31;;;;;;;3.30;2.07;;;12.70;1.00;;;;;;8331970;28;20195;-69
2022/07/25 00:38:32;;;;;;;4.17;1.90;;;12.70;1.00;;;;;;8350511;28;20194;-69
2022/07/25 00:42:33;;;;;;;3.20;1.87;;;12.70;1.00;;;;;;8314523;28;20229;-69
2022/07/25 00:46:38;;;;;;;3.37;1.93;;;12.70;1.00;;;;;;8318595;28;20207;-69
2022/07/25 00:50:38;;;;;;;3.23;2.07;;;12.60;1.00;;;;;;8320031;28;20302;-69
2022/07/25 00:54:39;;;;;;;2.10;1.40;;;12.50;1.00;;;;;;8332795;28;20229;-69
2022/07/25 00:58:40;;;;;;;2.50;1.80;;;12.40;1.00;;;;;;8340158;28;20205;-69
2022/07/25 01:02:41;;;;;;;3.53;2.17;;;12.30;51.90;;;;;;8336562;28;20201;-69
2022/07/25 01:06:43;;;;;;;5.23;2.00;;;12.20;99.90;;;;;;8334443;28;20205;-69
2022/07/25 01:10:45;;;;;;;4.03;2.30;;;12.10;99.90;;;;;;8324763;28;20194;-69
2022/07/25 01:14:46;;;;;;;6.63;2.83;;;12.00;99.90;;;;;;8336072;28;20237;-68
2022/07/25 01:18:46;;;;;;;4.43;2.10;;;11.90;1.00;;;;;;8318961;28;20182;-69
2022/07/25 01:22:48;;;;;;;3.47;2.40;;;11.90;1.00;;;;;;8334122;28;20190;-70
2022/07/25 01:26:49;;;;;;;6.67;2.47;;;11.90;1.00;;;;;;8338019;28;20639;-70
2022/07/25 01:30:49;;;;;;;4.20;2.40;;;12.00;1.00;;;;;;8318286;28;20341;-69
2022/07/25 01:34:50;;;;;;;4.63;2.67;;;12.10;1.00;;;;;;8335154;28;20185;-69
2022/07/25 01:38:51;;;;;;;6.50;2.77;;;12.00;1.00;;;;;;8315843;28;20212;-70
2022/07/25 01:42:52;;;;;;;5.50;3.40;;;12.00;1.00;;;;;;8322950;28;20190;-71
2022/07/25 01:46:52;;;;;;;3.53;2.50;;;12.10;99.90;;;;;;8316876;28;20233;-65
2022/07/25 01:50:53;;;;;;;3.67;2.73;;;12.20;76.40;;;;;;8332071;28;20261;-66
2022/07/25 01:54:54;;;;;;;4.53;2.33;;;12.30;99.90;;;;;;8316410;28;20273;-70
2022/07/25 01:58:55;;;;;;;4.00;2.20;;;12.30;99.90;;;;;;8327391;28;20201;-69
2022/07/25 02:07:15;;;;;;;4.07;2.40;;;12.00;13.50;;;;;;8337847;28;20216;-69
2022/07/25 02:11:16;;;;;;;2.30;2.10;;;11.80;1.00;;;;;;8318567;28;20273;-70
2022/07/25 02:15:16;;;;;;;4.63;2.17;;;11.70;80.90;;;;;;8326927;28;20221;-70
2022/07/25 02:19:17;;;;;;;3.80;2.50;;;11.60;99.90;;;;;;8325146;28;20224;-70
2022/07/25 02:23:18;;;;;;;4.53;3.20;;;11.50;99.90;;;;;;8321611;28;20216;-70
2022/07/25 02:27:19;;;;;;;5.77;2.83;;;11.60;1.00;;;;;;8321516;28;20241;-70
2022/07/25 02:31:19;;;;;;;3.67;2.80;;;11.50;99.90;;;;;;8348336;28;20182;-69
2022/07/25 02:35:20;;;;;;;3.90;2.27;;;11.30;1.00;;;;;;8350368;28;20209;-69
2022/07/25 02:39:21;;;;;;;6.17;2.90;;;11.20;1.00;;;;;;8334512;28;20634;-69
2022/07/25 02:43:22;;;;;;;5.80;2.50;;;11.20;99.90;;;;;;8314589;28;20195;-69
2022/07/25 02:47:23;;;;;;;3.23;2.20;;;11.20;99.90;;;;;;8315473;28;20216;-70
2022/07/25 02:51:24;;;;;;;2.73;2.20;;;11.10;99.90;;;;;;8329145;28;20241;-69
2022/07/25 02:55:25;;;;;;;4.87;2.10;;;11.00;99.90;;;;;;8316115;28;20205;-69
2022/07/25 02:59:26;;;;;;;4.87;2.43;;;11.00;99.90;;;;;;8352052;28;20214;-69
2022/07/25 03:03:27;;;;;;;3.23;2.37;;;11.00;99.90;;;;;;8315985;28;20186;-69
2022/07/25 03:07:27;;;;;;;2.93;2.30;;;11.00;1.00;;;;;;8333542;28;20214;-69
2022/07/25 03:11:28;;;;;;;6.03;2.20;;;10.90;1.00;;;;;;8323460;28;20186;-69
2022/07/25 03:15:29;;;;;;;2.27;2.00;;;10.90;1.00;;;;;;8334210;28;20186;-69
2022/07/25 03:19:30;;;;;;;3.90;2.40;;;10.90;1.00;;;;;;8349448;28;20190;-69
2022/07/25 03:23:30;;;;;;;3.00;2.27;;;10.90;1.00;;;;;;8332761;28;20197;-69
2022/07/25 03:27:32;;;;;;;6.30;2.20;;;10.90;1.00;;;;;;8319609;28;20297;-69
2022/07/25 03:31:33;;;;;;;5.20;2.37;;;10.90;99.90;;;;;;8331610;28;20182;-69
2022/07/25 03:35:36;;;;;;;3.00;2.17;;;11.00;99.90;;;;;;8312874;28;20252;-69
2022/07/25 03:39:37;;;;;;;3.00;2.60;;;11.10;99.90;;;;;;8333726;28;20212;-70
2022/07/25 03:43:38;;;;;;;2.63;2.23;;;11.20;99.90;;;;;;8316581;28;20208;-72
2022/07/25 03:47:38;;;;;;;6.73;2.63;;;11.30;27.70;;;;;;8317851;28;20214;-70
2022/07/25 03:51:40;;;;;;;6.57;2.97;;;11.50;1.00;;;;;;8321364;28;20212;-70
2022/07/25 03:55:40;;;;;;;5.00;2.90;;;11.80;1.00;;;;;;8317528;28;20186;-70
2022/07/25 03:59:41;;;;;;;4.00;2.50;;;12.60;99.90;;;;;;8319364;28;20190;-69
2022/07/25 04:03:42;;;;;;;4.07;2.77;;;13.80;99.90;;;;;;8319262;28;20190;-69
2022/07/25 04:07:43;;;;;;;3.33;2.27;;;15.10;99.90;;;;;;8318988;28;20383;-69
2022/07/25 04:11:44;;;;;;;4.67;2.70;;;15.80;99.90;;;;;;8319166;28;20192;-69
2022/07/25 04:15:44;;;;;;;6.63;3.07;;;16.40;1.00;;;;;;8324238;28;20221;-69
2022/07/25 04:19:45;;;;;;;4.77;2.33;;;17.30;99.90;;;;;;8335746;28;20190;-69
2022/07/25 04:23:47;;;;;;;3.57;2.30;;;17.60;99.90;;;;;;8322910;28;20221;-69
2022/07/25 04:27:48;;;;;;;4.77;2.33;;;18.30;99.90;;;;;;8339764;28;20221;-68
2022/07/25 04:31:49;;;;;;;3.70;2.07;;;19.40;99.90;;;;;;8340261;28;21172;-64
2022/07/25 04:35:50;;;;;;;5.07;2.80;;;20.50;22.90;;;;;;8349688;28;20736;-67
2022/07/25 04:39:51;;;;;;;3.20;2.43;;;20.70;1.00;;;;;;8331900;28;20197;-67
2022/07/25 04:43:51;;;;;;;7.37;2.40;;;20.50;29.10;;;;;;8325661;28;20308;-67
2022/07/25 04:47:52;;;;;;;3.20;2.37;;;20.80;1.00;;;;;;8337568;28;20240;-67
2022/07/25 04:51:53;;;;;;;4.53;2.17;;;21.30;1.00;;;;;;8338589;28;20207;-68
2022/07/25 04:55:54;;;;;;;4.33;2.00;;;21.90;1.00;;;;;;8322140;28;20260;-68
2022/07/25 04:59:55;;;;;;;4.30;1.73;;;22.50;1.00;;;;;;8322754;28;20201;-66
2022/07/25 05:03:55;;;;;;;2.70;1.90;;;23.10;1.00;;;;;;8352442;28;20196;-66
2022/07/25 05:07:58;;;;;;;4.83;1.77;;;23.70;1.00;;;;;;8319331;28;20612;-66
2022/07/25 05:12:01;;;;;;;5.63;2.00;;;23.50;1.00;;;;;;8341852;28;20227;-69
2022/07/25 05:16:02;;;;;;;4.70;2.20;;;22.90;1.00;;;;;;8327470;28;20224;-67
2022/07/25 05:20:03;;;;;;;3.63;1.70;;;22.30;1.00;;;;;;8315538;28;20582;-66
2022/07/25 05:24:04;;;;;;;3.27;1.50;;;21.70;1.00;;;;;;8333225;28;20194;-65
2022/07/25 05:28:05;;;;;;;3.17;2.00;;;21.40;1.00;;;;;;8323615;28;20213;-66
2022/07/25 05:32:06;;;;;;;5.73;2.13;;;21.40;1.00;;;;;;8330934;28;20270;-66
2022/07/25 05:36:07;;;;;;;3.00;1.40;;;21.50;1.00;;;;;;8321483;28;20220;-65
2022/07/25 05:40:08;;;;;;;3.10;1.90;;;21.50;1.00;;;;;;8341736;28;20207;-68
2022/07/25 05:44:09;;;;;;;3.27;1.90;;;21.60;1.00;;;;;;8330505;28;20256;-66
2022/07/25 05:48:10;;;;;;;3.33;1.90;;;21.60;1.00;;;;;;8343976;28;20210;-68
2022/07/25 05:52:11;;;;;;;4.93;2.13;;;21.70;1.00;;;;;;8318144;28;20300;-64
2022/07/25 05:56:11;;;;;;;5.00;2.00;;;21.80;1.00;;;;;;8358004;28;20518;-64
2022/07/25 06:00:12;;;;;;;5.47;1.87;;;21.90;1.00;;;;;;8336348;28;20197;-65
2022/07/25 06:04:13;;;;;;;3.83;2.00;;;22.10;1.00;;;;;;8316412;28;20187;-65
2022/07/25 06:08:15;;;;;;;3.03;1.70;;;22.40;1.00;;;;;;8331084;28;20218;-65
2022/07/25 06:12:16;;;;;;;3.93;2.10;;;22.60;1.00;;;;;;8341778;28;20187;-68
2022/07/25 06:16:17;;;;;;;4.03;1.53;;;22.70;1.00;;;;;;8339202;28;20190;-65
2022/07/25 06:20:18;;;;;;;2.40;1.50;;;22.90;1.00;;;;;;8318130;28;20247;-65
2022/07/25 06:24:19;;;;;;;6.73;1.53;;;23.10;1.00;;;;;;8333849;28;20273;-63
2022/07/25 06:28:19;;;;;;;1.90;1.50;;;23.20;1.00;;;;;;8317143;28;20264;-68
2022/07/25 06:32:20;;;;;;;20.00;2.97;;;23.40;1.00;;;;;;8335506;28;20209;-71
2022/07/25 06:36:21;;;;;;;7.43;2.27;;;23.80;1.00;;;;;;8356070;28;20220;-66
2022/07/25 06:40:22;;;;;;;5.40;1.80;;;24.20;1.00;;;;;;8322888;28;20189;-64
2022/07/25 06:44:22;;;;;;;3.93;1.53;;;24.30;1.00;;;;;;8339721;28;20196;-66
2022/07/25 06:48:23;;;;;;;9.40;1.97;;;24.40;1.00;;;;;;8326384;28;20240;-64
2022/07/25 06:52:24;;;;;;;2.63;1.60;;;24.60;1.00;;;;;;8351865;28;20292;-67
2022/07/25 06:56:30;;;;;;;4.37;1.90;;;24.70;1.00;;;;;;8321697;28;20209;-64
2022/07/25 07:00:31;;;;;;;2.67;1.47;;;24.90;1.00;;;;;;8320542;28;20255;-68
2022/07/25 07:04:31;;;;;;;4.33;1.33;;;25.10;1.00;;;;;;8333223;28;20181;-66
2022/07/25 07:08:33;;;;;;;9.73;2.33;;;25.20;1.00;;;;;;8332053;28;20284;-64
2022/07/25 07:12:33;;;;;;;6.57;2.10;;;25.30;1.00;;;;;;8340370;28;20188;-62
2022/07/25 07:16:35;;;;;;;2.60;1.73;;;25.30;1.00;;;;;;8314127;28;20185;-64
2022/07/25 07:20:36;;;;;;;5.83;1.57;;;25.40;1.00;;;;;;8335552;28;20190;-63
2022/07/25 07:24:37;;;;;;;4.50;2.00;;;25.70;1.00;;;;;;8321889;28;20186;-65
2022/07/25 07:28:38;;;;;;;2.10;1.50;;;25.90;1.00;;;;;;8336455;28;20236;-64
2022/07/25 07:32:38;;;;;;;4.10;1.60;;;26.00;1.00;;;;;;8322226;28;20192;-65
2022/07/25 07:36:39;;;;;;;5.87;1.93;;;26.10;1.00;;;;;;8337195;28;20210;-62
2022/07/25 07:40:40;;;;;;;3.53;1.70;;;26.20;1.00;;;;;;8336476;28;20182;-63
2022/07/25 07:44:41;;;;;;;3.80;1.60;;;26.30;1.00;;;;;;8314781;28;20188;-67
2022/07/25 07:48:41;;;;;;;5.33;1.73;;;26.30;1.00;;;;;;8334673;28;20205;-63
2022/07/25 07:52:43;;;;;;;2.83;1.90;;;26.40;1.00;;;;;;8336152;28;20297;-62
2022/07/25 07:56:44;;;;;;;4.03;2.13;;;26.60;1.00;;;;;;8315386;28;20383;-62
2022/07/25 08:00:48;;;;;;;3.00;2.00;;;26.60;1.00;;;;;;8318008;28;20186;-61
2022/07/25 08:04:48;;;;;;;5.13;2.40;;;26.70;1.00;;;;;;8347400;28;20277;-60
2022/07/25 08:08:49;;;;;;;4.43;1.70;;;26.90;1.00;;;;;;8315917;28;20214;-67
2022/07/25 08:12:50;;;;;;;2.53;1.60;;;27.20;1.00;;;;;;8322805;28;20271;-64
2022/07/25 08:16:51;;;;;;;3.00;1.92;;;27.40;1.00;;;;;;8349185;28;20209;-65
2022/07/25 08:20:53;;;;;;;1.98;1.65;;;27.50;1.00;;;;;;8321329;28;20221;-63
2022/07/25 08:24:54;;;;;;;4.30;1.40;;;27.70;1.00;;;;;;8312801;28;20178;-62
2022/07/25 08:28:55;;;;;;;6.70;2.15;;;27.70;1.00;;;;;;8333680;28;20210;-63
2022/07/25 08:32:58;;;;;;;6.25;1.80;;;27.70;1.00;;;;;;8332867;28;20185;-63
2022/07/25 08:37:01;;;;;;;3.40;1.88;;;27.90;1.00;;;;;;8327883;28;20190;-60
2022/07/25 08:41:02;;;;;;;4.70;1.92;;;28.00;1.00;;;;;;8316915;28;20191;-65
2022/07/25 08:45:06;;;;;;;3.08;1.65;;;28.10;1.00;;;;;;8316751;28;20405;-62
2022/07/25 08:49:07;;;;;;;2.55;1.65;;;28.30;1.00;;;;;;8331683;28;20273;-63
2022/07/25 08:53:09;;;;;;;4.43;1.88;;;28.60;1.00;;;;;;8323216;28;20209;-63
2022/07/25 08:57:09;;;;;;;5.03;2.05;;;28.70;1.00;;;;;;8323951;28;20200;-63
2022/07/25 09:01:11;;;;;;;4.45;1.92;;;28.80;1.00;;;;;;8335035;28;20181;-62
2022/07/25 09:05:12;;;;;;;2.92;1.67;;;29.00;99.90;;;;;;8337341;28;20265;-67
2022/07/25 09:09:12;;;;;;;2.00;1.70;;;29.10;99.90;;;;;;8332522;28;20224;-66
2022/07/25 09:13:14;;;;;;;2.83;2.10;;;29.30;99.90;;;;;;8319412;28;20181;-62
2022/07/25 09:17:15;;;;;;;2.05;1.50;;;29.50;99.90;;;;;;8339603;28;20208;-63
2022/07/25 09:21:16;;;;;;;2.70;1.85;;;29.60;99.90;;;;;;8328059;28;20214;-61
2022/07/25 09:25:27;;;;;;;3.08;2.10;;;29.80;99.90;;;;;;8334871;28;20274;-63
2022/07/25 09:29:31;;;;;;;2.30;1.70;;;29.90;99.90;;;;;;8320445;28;20226;-61
2022/07/25 09:33:32;;;;;;;3.47;1.52;;;30.00;99.90;;;;;;8323393;28;20186;-64
2022/07/25 09:37:33;;;;;;;2.55;1.70;;;30.20;99.90;;;;;;8330688;28;20197;-62
2022/07/25 09:41:38;;;;;;;1.65;1.40;;;30.40;99.90;;;;;;8338197;28;20201;-65
2022/07/25 09:45:48;;;;;;;3.15;1.60;;;30.40;99.90;;;;;;8335571;28;20272;-67
2022/07/25 09:49:51;;;;;;;4.70;2.00;;;30.30;99.90;;;;;;8349546;28;20203;-69
2022/07/25 09:53:51;;;;;;;3.05;1.85;;;30.20;99.90;;;;;;8319285;28;20214;-62
2022/07/25 09:57:52;;;;;;;2.58;1.88;;;30.30;99.90;;;;;;8335388;28;20182;-64
2022/07/25 10:02:24;;;;;;;3.38;1.80;;;30.60;99.90;;;;;;8333795;28;20182;-63
2022/07/25 10:06:38;;;;;;;2.15;1.95;;;31.00;99.90;;;;;;8323555;28;20190;-61
2022/07/25 10:10:40;;;;;;;5.05;1.80;;;31.10;99.90;;;;;;8331890;28;20187;-63
2022/07/25 10:14:41;;;;;;;2.58;1.80;;;31.20;99.90;;;;;;8346382;28;20190;-66
2022/07/25 10:18:48;;;;;;;3.03;1.70;;;31.30;99.90;;;;;;8349665;28;20190;-62
2022/07/25 10:22:49;;;;;;;1.75;1.60;;;31.40;99.90;;;;;;8325468;28;20198;-64
2022/07/25 10:26:52;;;;;;;2.67;2.00;;;31.50;99.90;;;;;;8338276;28;20201;-63
2022/07/25 10:30:57;;;;;;;3.58;1.77;;;31.60;99.90;;;;;;8348941;28;20206;-65
2022/07/25 10:34:58;;;;;;;3.65;1.70;;;31.60;99.90;;;;;;8329988;28;20210;-67
2022/07/25 10:39:00;;;;;;;5.90;2.00;;;31.70;99.90;;;;;;8333512;28;20186;-60
2022/07/25 10:43:04;;;;;;;4.32;1.80;;;31.70;99.90;;;;;;8332356;28;20204;-64
2022/07/25 10:47:07;;;;;;;1.80;1.70;;;31.90;99.90;;;;;;8331901;28;20198;-61
2022/07/25 10:51:12;;;;;;;3.20;2.00;;;32.20;99.90;;;;;;8317354;28;20308;-63
2022/07/25 10:55:22;;;;;;;3.08;2.15;;;32.30;99.90;;;;;;8319112;28;20208;-63
2022/07/25 10:59:31;;;;;;;2.85;2.47;;;32.40;99.90;;;;;;8321450;28;20190;-64
2022/07/25 11:03:32;;;;;;;3.25;1.90;;;32.20;99.90;;;;;;8321009;28;20179;-62
2022/07/25 11:07:36;;;;;;;5.00;2.42;;;32.20;99.90;;;;;;8331699;28;20210;-64
2022/07/25 11:11:39;;;;;;;2.80;2.60;;;32.40;99.90;;;;;;8333845;28;20564;-64
2022/07/25 11:15:41;;;;;;;3.80;2.47;;;32.50;99.90;;;;;;8323524;28;20255;-62
2022/07/25 11:19:44;;;;;;;3.67;2.60;;;32.80;99.90;;;;;;8338520;28;20269;-63
2022/07/25 11:23:50;;;;;;;2.60;2.40;;;32.50;99.90;;;;;;8321075;28;20214;-64
2022/07/25 11:27:59;;;;;;;4.20;2.58;;;32.50;99.90;;;;;;8322365;28;20513;-61
2022/07/25 11:32:03;;;;;;;3.72;2.65;;;32.50;99.90;;;;;;8332621;28;20186;-63
2022/07/25 11:36:04;;;;;;;3.47;2.80;;;32.50;99.90;;;;;;8334200;28;20265;-64
2022/07/25 11:40:06;;;;;;;7.18;2.88;;;32.60;99.90;;;;;;8332344;28;20245;-62
2022/07/25 11:44:07;;;;;;;2.63;2.42;;;32.70;99.90;;;;;;8335272;28;20197;-61
2022/07/25 11:48:12;;;;;;;3.38;2.40;;;32.90;99.90;;;;;;8335164;28;20201;-65
2022/07/25 11:52:25;;;;;;;5.45;2.67;;;33.10;99.90;;;;;;8335773;28;20256;-63
2022/07/25 11:56:26;;;;;;;2.85;2.55;;;33.10;99.90;;;;;;8325400;28;20609;-63
2022/07/25 12:00:28;;;;;;;2.80;2.60;;;33.10;99.90;;;;;;8335823;28;20193;-62
2022/07/25 12:04:28;;;;;;;3.97;2.67;;;33.00;99.90;;;;;;8338500;28;20182;-61
2022/07/25 12:08:37;;;;;;;3.28;2.78;;;33.10;99.90;;;;;;8351274;28;20236;-63
2022/07/25 12:12:51;;;;;;;3.15;2.70;;;33.20;99.90;;;;;;8336303;28;20264;-63
2022/07/25 12:16:52;;;;;;;6.03;2.40;;;33.40;99.90;;;;;;8322323;28;20183;-63
2022/07/25 12:20:53;;;;;;;2.70;2.50;;;33.50;99.90;;;;;;8331939;28;20186;-63
2022/07/25 12:24:54;;;;;;;5.50;2.67;;;33.50;99.90;;;;;;8332302;28;20593;-61
2022/07/25 12:28:54;;;;;;;4.03;2.70;;;33.50;99.90;;;;;;8337994;28;20288;-62
2022/07/25 12:32:57;;;;;;;3.72;2.55;;;33.70;99.90;;;;;;8329188;28;20206;-61
2022/07/25 12:36:58;;;;;;;5.32;2.58;;;33.80;99.90;;;;;;8322933;28;20208;-62
2022/07/25 12:40:59;;;;;;;3.70;2.72;;;33.70;99.90;;;;;;8323216;28;20184;-60
2022/07/25 12:45:00;;;;;;;2.92;2.55;;;33.80;99.90;;;;;;8322803;28;20216;-66
2022/07/25 12:49:01;;;;;;;2.95;2.45;;;33.80;99.90;;;;;;8322051;28;20205;-64
2022/07/25 12:53:03;;;;;;;2.97;2.70;;;33.90;99.90;;;;;;8339537;28;20222;-63
2022/07/25 12:57:04;;;;;;;2.72;2.50;;;33.80;99.90;;;;;;8324155;28;20190;-64
2022/07/25 13:01:05;;;;;;;2.70;2.50;;;33.90;99.90;;;;;;8337543;28;20224;-62
2022/07/25 13:05:06;;;;;;;4.53;2.30;;;33.90;99.90;;;;;;8325584;28;20257;-64
2022/07/25 13:09:07;;;;;;;2.70;2.35;;;34.10;99.90;;;;;;8341651;28;20228;-61
2022/07/25 13:13:08;;;;;;;3.30;2.20;;;34.10;99.90;;;;;;8352283;28;20187;-62
2022/07/25 13:17:09;;;;;;;4.00;2.10;;;34.10;99.90;;;;;;8320340;28;20181;-65
2022/07/25 13:21:10;;;;;;;2.53;2.30;;;34.00;99.90;;;;;;8323743;28;20182;-63
2022/07/25 13:25:11;;;;;;;2.03;1.88;;;34.10;99.90;;;;;;8327654;28;20261;-65
2022/07/25 13:29:12;;;;;;;2.22;2.00;;;34.10;99.90;;;;;;8339415;28;20234;-61
2022/07/25 13:33:13;;;;;;;4.28;2.40;;;34.10;99.90;;;;;;8319679;28;20637;-62
2022/07/25 13:37:14;;;;;;;4.63;2.10;;;34.10;99.90;;;;;;8334530;28;20182;-67
2022/07/25 13:41:15;;;;;;;4.53;2.08;;;34.10;99.90;;;;;;8337487;28;20178;-62
2022/07/25 13:45:16;;;;;;;2.60;2.08;;;33.80;99.90;;;;;;8324464;28;20248;-62
2022/07/25 13:49:17;;;;;;;3.75;2.25;;;33.90;99.90;;;;;;8339716;28;20355;-63
2022/07/25 13:53:18;;;;;;;2.58;2.38;;;34.00;99.90;;;;;;8337577;28;20229;-62
2022/07/25 13:57:19;;;;;;;2.50;2.15;;;33.80;99.90;;;;;;8337311;28;20216;-64
2022/07/25 14:01:19;;;;;;;3.22;2.72;;;33.90;99.90;;;;;;8317645;28;20208;-62
2022/07/25 14:05:20;;;;;;;6.97;2.22;;;34.10;99.90;;;;;;8334680;28;20187;-62
2022/07/25 14:09:22;;;;;;;2.83;2.40;;;34.20;99.90;;;;;;8333278;28;20272;-61
2022/07/25 14:13:23;;;;;;;4.03;2.30;;;34.20;99.90;;;;;;8335217;28;20174;-64
2022/07/25 14:17:24;;;;;;;4.13;2.50;;;34.20;99.90;;;;;;8325755;28;20244;-61
2022/07/25 14:21:25;;;;;;;6.32;2.58;;;34.30;99.90;;;;;;8338932;28;20179;-63
2022/07/25 14:25:26;;;;;;;3.97;2.50;;;34.40;99.90;;;;;;8355377;28;20209;-65
2022/07/25 14:29:27;;;;;;;4.20;2.53;;;34.40;99.90;;;;;;8317247;28;20233;-62
2022/07/25 14:33:27;;;;;;;3.55;2.05;;;34.40;99.90;;;;;;8330111;28;20198;-62
2022/07/25 14:37:30;;;;;;;4.18;2.33;;;34.40;99.90;;;;;;8317068;28;20189;-63
2022/07/25 14:41:31;;;;;;;2.33;2.13;;;34.40;99.90;;;;;;8350170;28;20286;-61
2022/07/25 14:45:32;;;;;;;2.50;2.10;;;34.30;99.90;;;;;;8323453;28;20186;-61
2022/07/25 14:49:33;;;;;;;4.68;2.20;;;34.20;99.90;;;;;;8322876;28;20214;-61
2022/07/25 14:53:35;;;;;;;2.67;2.47;;;34.20;99.90;;;;;;8318643;28;20324;-64
2022/07/25 14:57:36;;;;;;;3.13;2.10;;;34.20;99.90;;;;;;8323002;28;20202;-65
2022/07/25 15:01:38;;;;;;;3.58;2.60;;;34.30;99.90;;;;;;8322669;28;20193;-62
2022/07/25 15:05:40;;;;;;;2.28;2.08;;;34.20;99.90;;;;;;8316005;28;20191;-62
2022/07/25 15:09:41;;;;;;;2.70;2.38;;;34.10;99.90;;;;;;8321330;28;20392;-64
2022/07/25 15:13:42;;;;;;;5.18;2.40;;;34.10;99.90;;;;;;8321416;28;20182;-65
2022/07/25 15:17:43;;;;;;;2.42;2.22;;;34.10;99.90;;;;;;8316027;28;20179;-63
2022/07/25 15:21:44;;;;;;;4.03;2.50;;;34.10;99.90;;;;;;8333706;28;20232;-64
2022/07/25 15:25:46;;;;;;;5.45;2.30;;;33.90;99.90;;;;;;8312651;28;20186;-63
2022/07/25 15:29:47;;;;;;;1.98;1.80;;;34.00;99.90;;;;;;8330218;28;20233;-61
2022/07/25 15:33:48;;;;;;;3.47;2.15;;;34.10;99.90;;;;;;8332650;28;20321;-65
2022/07/25 15:37:49;;;;;;;3.58;2.15;;;34.10;99.90;;;;;;8335833;28;20268;-64
2022/07/25 15:41:50;;;;;;;2.63;2.10;;;34.00;99.90;;;;;;8321724;28;20194;-61
2022/07/25 15:45:51;;;;;;;2.20;2.00;;;34.10;99.90;;;;;;8316218;28;20186;-62
2022/07/25 15:49:52;;;;;;;2.80;2.05;;;34.00;99.90;;;;;;8334117;28;20214;-64
2022/07/25 15:53:52;;;;;;;2.60;2.33;;;34.00;99.90;;;;;;8320325;28;20224;-65
2022/07/25 15:57:53;;;;;;;2.20;2.00;;;34.00;99.90;;;;;;8320228;28;20192;-63
2022/07/25 16:01:54;;;;;;;1.80;1.70;;;34.00;99.90;;;;;;8337316;28;20189;-64
2022/07/25 16:05:56;;;;;;;3.60;1.92;;;33.80;99.90;;;;;;8341679;28;20213;-65
2022/07/25 16:09:56;;;;;;;2.53;2.15;;;33.70;99.90;;;;;;8325723;28;20213;-63
2022/07/25 16:13:57;;;;;;;2.75;2.40;;;33.70;99.90;;;;;;8338717;28;20193;-62
2022/07/25 16:17:58;;;;;;;4.18;2.30;;;33.80;99.90;;;;;;8343027;28;20213;-63
2022/07/25 16:21:59;;;;;;;2.40;2.20;;;33.80;99.90;;;;;;8337983;28;20271;-65
2022/07/25 16:26:00;;;;;;;3.05;2.60;;;33.80;99.90;;;;;;8336018;28;20186;-64
2022/07/25 16:30:01;;;;;;;2.67;2.25;;;33.70;99.90;;;;;;8344310;28;20287;-65
2022/07/25 16:34:01;;;;;;;2.60;2.40;;;33.60;99.90;;;;;;8340466;28;20185;-62
2022/07/25 16:38:03;;;;;;;2.60;2.30;;;33.60;99.90;;;;;;8343355;28;20189;-64
2022/07/25 16:42:04;;;;;;;2.38;2.17;;;33.50;99.90;;;;;;8353059;28;20233;-63
2022/07/25 16:46:06;;;;;;;3.08;2.15;;;33.40;99.90;;;;;;8339224;28;20410;-61
2022/07/25 16:50:07;;;;;;;2.97;2.22;;;33.30;99.90;;;;;;8330669;28;20214;-62
2022/07/25 16:54:11;;;;;;;4.65;2.28;;;33.20;99.90;;;;;;8330353;28;20236;-61
2022/07/25 16:58:11;;;;;;;4.88;2.50;;;33.20;99.90;;;;;;8341645;28;20228;-63
2022/07/25 17:02:12;;;;;;;3.75;2.30;;;33.10;99.90;;;;;;8339332;28;20212;-64
2022/07/25 17:06:15;;;;;;;2.58;2.38;;;32.90;99.90;;;;;;8354828;28;20194;-61
2022/07/25 17:10:16;;;;;;;3.15;2.60;;;32.80;99.90;;;;;;8323736;28;20210;-61
2022/07/25 17:14:16;;;;;;;3.30;2.50;;;32.50;99.90;;;;;;8326704;28;20190;-61
2022/07/25 17:18:17;;;;;;;3.13;2.38;;;32.30;99.90;;;;;;8317126;28;20553;-64
2022/07/25 17:22:19;;;;;;;2.72;2.35;;;32.10;99.90;;;;;;8351301;28;20202;-61
2022/07/25 17:26:20;;;;;;;4.30;2.50;;;32.00;99.90;;;;;;8339636;28;20249;-61
2022/07/25 17:30:21;;;;;;;3.30;3.00;;;32.00;99.90;;;;;;8330352;28;20301;-63
2022/07/25 17:34:23;;;;;;;4.15;2.58;;;31.80;99.90;;;;;;8322864;28;20175;-62
2022/07/25 17:38:23;;;;;;;4.15;2.50;;;31.70;99.90;;;;;;8355625;28;20209;-64
2022/07/25 17:42:24;;;;;;;3.47;2.40;;;32.10;99.90;;;;;;8332730;28;20185;-62
2022/07/25 17:46:25;;;;;;;2.45;2.20;;;32.80;99.90;;;;;;8348269;28;20272;-61
2022/07/25 17:50:28;;;;;;;3.17;2.55;;;33.20;99.90;;;;;;8336874;28;20275;-61
2022/07/25 17:54:28;;;;;;;2.58;2.35;;;33.40;99.90;;;;;;8315624;28;20200;-62
2022/07/25 17:58:30;;;;;;;2.78;2.33;;;33.20;99.90;;;;;;8325923;28;20194;-61
2022/07/25 18:02:31;;;;;;;3.33;2.28;;;33.00;99.90;;;;;;8323206;28;20286;-61
2022/07/25 18:06:32;;;;;;;2.67;2.40;;;32.50;99.90;;;;;;8331781;28;20201;-61
2022/07/25 18:10:33;;;;;;;2.70;2.50;;;31.90;99.90;;;;;;8346892;28;20508;-61
2022/07/25 18:14:34;;;;;;;2.40;2.20;;;31.20;99.90;;;;;;8338251;28;20189;-61
2022/07/25 18:18:35;;;;;;;2.80;2.38;;;30.60;99.90;;;;;;8320443;28;20214;-62
2022/07/25 18:22:37;;;;;;;2.60;2.40;;;30.00;99.90;;;;;;8323376;28;20201;-61
2022/07/25 18:26:41;;;;;;;2.22;2.03;;;29.60;99.90;;;;;;8319116;28;20282;-62
2022/07/25 18:30:42;;;;;;;2.25;2.05;;;29.10;99.90;;;;;;8333395;28;20207;-61
2022/07/25 18:34:43;;;;;;;2.63;2.25;;;28.60;99.90;;;;;;8322009;28;20229;-62
2022/07/25 18:38:44;;;;;;;2.40;2.20;;;28.20;99.90;;;;;;8318205;28;20246;-61
2022/07/25 18:42:44;;;;;;;2.50;2.30;;;27.70;99.90;;;;;;8316032;28;20194;-62
2022/07/25 18:46:45;;;;;;;2.85;2.13;;;27.40;99.90;;;;;;8315491;28;20190;-65
2022/07/25 18:50:46;;;;;;;3.10;2.55;;;27.00;99.90;;;;;;8320827;28;20287;-62
2022/07/25 18:54:48;;;;;;;3.55;2.40;;;26.70;99.90;;;;;;8333120;28;20194;-62
2022/07/25 18:58:48;;;;;;;2.90;2.35;;;26.50;99.90;;;;;;8323663;28;20185;-62
2022/07/25 19:02:49;;;;;;;3.17;2.37;;;26.20;99.90;;;;;;8316322;28;20195;-63
2022/07/25 19:06:50;;;;;;;5.63;2.60;;;25.90;1.00;;;;;;8328811;28;20190;-62
2022/07/25 19:10:51;;;;;;;5.10;2.80;;;25.60;1.00;;;;;;8315179;28;20209;-63
2022/07/25 19:14:53;;;;;;;3.97;3.00;;;25.30;1.00;;;;;;8346369;28;20196;-62
2022/07/25 19:18:54;;;;;;;6.07;3.13;;;25.10;1.00;;;;;;8316230;28;20190;-63
2022/07/25 19:22:55;;;;;;;4.77;3.03;;;24.90;1.00;;;;;;8348296;28;20190;-62
2022/07/25 19:26:56;;;;;;;6.23;3.57;;;24.70;1.00;;;;;;8318935;28;20190;-62
2022/07/25 19:30:56;;;;;;;3.63;3.00;;;24.60;1.00;;;;;;8319843;28;20182;-60
2022/07/25 19:34:57;;;;;;;3.83;3.00;;;24.40;1.00;;;;;;8328977;28;20182;-61
2022/07/25 19:38:59;;;;;;;5.00;3.10;;;24.20;1.00;;;;;;8346163;28;20190;-62
2022/07/25 19:43:00;;;;;;;7.40;3.50;;;24.10;1.00;;;;;;8329238;28;21409;-62
2022/07/25 19:47:01;;;;;;;7.00;3.17;;;23.90;1.00;;;;;;8329992;28;20190;-62
2022/07/25 19:51:02;;;;;;;7.27;3.77;;;23.80;1.00;;;;;;8316187;28;20269;-62
2022/07/25 19:55:04;;;;;;;6.60;3.90;;;23.70;1.00;;;;;;8330193;28;20247;-62
2022/07/25 19:59:05;;;;;;;7.83;4.30;;;23.60;1.00;;;;;;8312722;28;20185;-64
2022/07/25 20:03:06;;;;;;;6.37;3.83;;;23.50;1.00;;;;;;8314806;28;20471;-63
2022/07/25 20:07:07;;;;;;;10.47;4.93;;;23.50;1.00;;;;;;8310798;28;20194;-62
2022/07/25 20:11:07;;;;;;;7.80;4.10;;;23.50;1.00;;;;;;8309557;28;20198;-62
2022/07/25 20:15:09;;;;;;;6.17;4.40;;;23.40;1.00;;;;;;8321296;28;20255;-63
2022/07/25 20:19:11;;;;;;;7.13;3.90;;;23.40;1.00;;;;;;8333317;28;20254;-65
2022/07/25 20:23:11;;;;;;;7.03;4.40;;;23.40;1.00;;;;;;8322879;28;20256;-63
2022/07/25 20:27:12;;;;;;;8.50;4.17;;;23.40;1.00;;;;;;8346029;28;20193;-66
2022/07/25 20:31:13;;;;;;;8.87;4.07;;;23.40;1.00;;;;;;8317710;28;20190;-63
2022/07/25 20:35:14;;;;;;;6.03;4.33;;;23.40;1.00;;;;;;8322208;28;20359;-62
2022/07/25 20:39:15;;;;;;;5.57;4.17;;;23.30;1.00;;;;;;8320945;28;20309;-62
2022/07/25 20:43:16;;;;;;;6.17;4.00;;;23.30;1.00;;;;;;8332078;28;20337;-62
2022/07/25 20:47:17;;;;;;;17.90;9.67;;;23.20;1.00;;;;;;8319402;28;20193;-61
2022/07/25 20:51:17;;;;;;;11.87;7.17;;;23.10;1.00;;;;;;8341518;28;20265;-61
2022/07/25 20:55:18;;;;;;;24.30;13.83;;;22.90;1.00;;;;;;8337771;28;20252;-61
2022/07/25 20:59:19;;;;;;;24.37;15.57;;;22.80;1.00;;;;;;8336181;28;20186;-62
2022/07/25 21:03:20;;;;;;;18.27;12.07;;;22.80;1.00;;;;;;8336957;28;20395;-62
2022/07/25 21:07:21;;;;;;;17.50;8.40;;;22.60;1.00;;;;;;8352703;28;20544;-62